Bei Facebook empfehlenBei Twitter postenGoogle plusPinterest

Das Wetter im Erzgebirge am 12.05.2017

Wetter und Klima am 12.05.2017 Holzhau im Erzgebirge (630m ü.NN)
Letzte gemessene Temperatur und Uhrzeit der Messung12:00:00 Uhr20.80 °C
Temperatur (Maximum / Höchstwert) und Uhrzeit der Messung11:30:00 Uhr22.30 °C
Temperatur (Minimum / Tiefstwert) und Uhrzeit der Messung05:45:007.20 °C
Errechneter Absolutwert der Temperaturschwankungen zwischen Tmin und Tmax des Tages15.10 K
Errechnete Tagesmitteltemperatur12.33621 °C
Gesamt - Niederschlag des Tages (in flüssiger Form)1820.27 Liter / m²
Luftdruck (Maximum / Höchstwert) und Zeitpunkt der Messung12:00:00 Uhr1000.60 hPa
Luftdruck (Minimum / Tiefstwert) und Zeitpunkt der Messung05:10:00 Uhr933.60 hPa
Errechneter Absolutwert der Luftdruckschwankungen des Tages67.00 hPa
Höchste gemessene Windgeschwindigkeit und Uhrzeit der Messung08:10:00 Uhr660.96 km/h
Errechnete Windhäufigkeit in Relation zu den Messwerten des Tages50.00000 %
Niedrigste Windkühle (Windchill) und Zeitpunkt der Messung01:10:00 Uhr1.70 °C
Taupunkt (Maximum / Höchstwert) und Uhrzeit der Messung11:15:00 Uhr10.90 °C
Taupunkt (Minimum / Tiefstwert) und Uhrzeit der Messung05:15:003.20 °C
Anzahl der automatisch eingelesenen Messwerte 58

Detaillierte Wetter- und Klima- Messwerte für den 12.05.2017 in Holzhau im Erzgebirge (630m ü.NN)
ZeitTemperaturLuftdruckRel. LuftfeuchteWindWindrichtungWindchillTaupunktNiederschlag l/m²
12:00:0020.80 °C1000.60 hPa49.00 %9.70 °C 
11:45:0021.40 °C1000.50 hPa49.00 %10.30 °C 
11:30:0022.30 °C1000.30 hPa47.00 %0.72 km/hW22.30 °C10.50 °C 
11:15:0021.80 °C1000.20 hPa50.00 %10.90 °C 
11:00:0020.10 °C1000.30 hPa52.00 %183.60 km/hWNW17.80 °C9.90 °C 
10:45:0018.60 °C1000.30 hPa53.00 %8.80 °C 
10:30:0019.10 °C1000.00 hPa52.00 %9.00 °C 
10:15:0019.30 °C999.90 hPa52.00 %9.20 °C 
10:00:0019.30 °C999.90 hPa53.00 %5.04 km/hSW20.30 °C9.50 °C 
09:45:0019.50 °C1000.00 hPa53.00 %8.28 km/hSW20.10 °C9.70 °C 
09:30:0019.00 °C999.90 hPa54.00 %1.80 km/hNNW19.00 °C9.50 °C 
09:15:0018.50 °C999.70 hPa54.00 %12.24 km/hSW18.60 °C9.00 °C 
09:00:0018.40 °C999.70 hPa57.00 %1.44 km/hSW18.40 °C9.70 °C 
08:45:0017.80 °C999.50 hPa60.00 %9.90 °C 
08:30:0016.90 °C999.50 hPa62.00 %9.60 °C 
08:15:0016.20 °C999.50 hPa65.00 %9.60 °C 
08:10:009.80 °C936.70 hPa82.00 %660.96 km/hWNW2.00 °C6.90 °C1820.27
08:00:0015.30 °C999.50 hPa65.00 %8.80 °C 
07:45:0014.20 °C999.50 hPa68.00 %8.40 °C 
07:30:0012.60 °C999.10 hPa72.00 %7.70 °C 
07:15:0010.60 °C999.00 hPa76.00 %5.76 km/hOSO10.20 °C6.60 °C 
07:10:009.80 °C934.80 hPa82.00 %660.96 km/hWNW2.00 °C6.90 °C1820.27
07:00:009.10 °C999.00 hPa79.00 %5.70 °C 
06:45:008.60 °C998.90 hPa79.00 %5.20 °C 
06:30:008.50 °C998.90 hPa79.00 %5.10 °C 
06:15:008.40 °C998.90 hPa79.00 %2.52 km/hSO8.40 °C5.00 °C 
06:10:009.80 °C934.10 hPa82.00 %660.96 km/hWNW2.00 °C6.90 °C1820.27
06:00:008.10 °C998.70 hPa80.00 %4.90 °C 
05:45:007.20 °C998.90 hPa79.00 %3.80 °C 
05:30:007.30 °C998.80 hPa77.00 %3.50 °C 
05:15:007.30 °C998.60 hPa75.00 %3.20 °C 
05:10:009.80 °C933.60 hPa82.00 %660.96 km/hWNW2.00 °C6.90 °C1820.27
05:00:007.60 °C998.40 hPa74.00 %3.30 °C 
04:45:008.10 °C998.40 hPa72.00 %3.40 °C 
04:30:008.80 °C998.40 hPa70.00 %3.60 °C 
04:15:009.60 °C998.40 hPa70.00 %5.40 km/hSSO9.20 °C4.40 °C 
04:10:009.80 °C933.80 hPa82.00 %660.96 km/hWNW2.00 °C6.90 °C1820.27
04:00:009.50 °C998.60 hPa71.00 %2.16 km/hOSO9.50 °C4.50 °C 
03:45:009.80 °C998.30 hPa70.00 %4.60 °C 
03:30:009.70 °C998.40 hPa70.00 %5.40 km/hSO9.30 °C4.50 °C 
03:15:009.60 °C998.50 hPa70.00 %10.44 km/hSO8.10 °C4.40 °C 
03:10:009.70 °C934.10 hPa82.00 %660.96 km/hWNW1.80 °C6.80 °C1820.27
03:00:009.80 °C998.50 hPa68.00 %4.32 km/hOSO9.80 °C4.20 °C 
02:45:0010.10 °C998.60 hPa68.00 %9.72 km/hO8.80 °C4.50 °C 
02:30:0010.30 °C998.60 hPa67.00 %4.50 °C 
02:15:0010.10 °C998.60 hPa67.00 %6.48 km/hOSO9.50 °C4.30 °C 
02:10:009.70 °C934.20 hPa82.00 %660.96 km/hWNW1.80 °C6.80 °C1820.27
02:00:0010.30 °C998.70 hPa67.00 %5.04 km/hOSO10.10 °C4.50 °C 
01:45:0010.50 °C998.80 hPa66.00 %6.12 km/hSO10.00 °C4.40 °C 
01:30:0010.70 °C999.00 hPa66.00 %4.60 °C 
01:15:0010.60 °C999.20 hPa66.00 %4.68 km/hONO10.60 °C4.50 °C 
01:10:009.60 °C934.60 hPa83.00 %660.96 km/hWNW1.70 °C6.90 °C1820.27
01:00:0010.40 °C999.20 hPa67.00 %4.50 °C 
00:45:009.90 °C999.20 hPa68.00 %5.40 km/hSO9.50 °C4.30 °C 
00:30:009.30 °C999.20 hPa70.00 %4.10 °C 
00:15:008.90 °C999.30 hPa71.00 %3.90 °C 
00:10:009.60 °C934.70 hPa82.00 %660.96 km/hWNW1.70 °C6.70 °C1820.27
00:00:008.10 °C999.50 hPa72.00 %3.40 °C 

Permanenter Link zu dieser Seite: Wetter im Erzgebirge am 12.05.2017
Performance-Info: Die Erstellung der Seite / Statistik(en) / Tabelle(n) erforderte 5 Datenbankserver-Abfrage(n) und dauerte 122 Millisekunden. (Dieser Messwert ist von der Gesamt-Auslastung des Servers abhängig.)
Erzgebirge - Wetter | Erzgebirge - Wetter (Mobilgeräte) | Komplette Klimadatenbank